createdAt,value
2023-03-02T00:18:47.313Z,0.90
2023-03-02T00:21:14.045Z,0.90
2023-03-02T00:23:43.206Z,0.90
2023-03-02T00:28:40.216Z,0.80
2023-03-02T00:31:07.186Z,0.90
2023-03-02T00:33:36.565Z,0.80
2023-03-02T00:53:43.998Z,0.80
2023-03-02T00:56:11.500Z,0.60
2023-03-02T00:58:38.290Z,0.50
2023-03-02T01:01:10.693Z,0.50
2023-03-02T01:03:38.273Z,0.40
2023-03-02T01:06:15.660Z,0.40
2023-03-02T01:08:42.356Z,0.40
2023-03-02T01:11:16.663Z,0.40
2023-03-02T01:13:46.260Z,0.40
2023-03-02T01:16:16.479Z,0.40
2023-03-02T01:18:45.414Z,0.50
2023-03-02T01:21:17.363Z,0.40
2023-03-02T01:23:46.467Z,0.50
2023-03-02T01:26:15.286Z,0.40
2023-03-02T01:28:41.969Z,0.40
2023-03-02T01:31:08.736Z,0.40
2023-03-02T01:33:35.543Z,0.50
2023-03-02T01:36:02.315Z,0.40
2023-03-02T01:38:29.239Z,0.40
2023-03-02T01:40:56.236Z,0.40
2023-03-02T01:43:23.233Z,0.40
2023-03-02T01:46:03.030Z,0.40
2023-03-02T01:48:34.117Z,0.40
2023-03-02T01:51:03.827Z,0.30
2023-03-02T01:53:34.217Z,0.20
2023-03-02T01:56:05.647Z,0.30
2023-03-02T01:58:36.716Z,0.30
2023-03-02T02:01:15.250Z,0.20
2023-03-02T02:03:51.186Z,0.30
2023-03-02T02:06:39.438Z,0.30
2023-03-02T02:09:10.455Z,0.30
2023-03-02T02:11:39.691Z,0.20
2023-03-02T02:14:06.678Z,0.20
2023-03-02T02:16:35.719Z,0.20
2023-03-02T02:19:04.013Z,0.20
2023-03-02T04:20:45.382Z,-0.50
2023-03-02T04:23:12.230Z,-0.60
2023-03-02T04:25:43.403Z,-0.60
2023-03-02T04:28:10.082Z,-0.60
2023-03-02T04:30:36.787Z,-0.60
2023-03-02T04:33:03.545Z,-0.60
2023-03-02T04:35:30.468Z,-0.50
2023-03-02T04:37:57.258Z,-0.70
2023-03-02T04:40:24.526Z,-0.60
2023-03-02T04:42:51.224Z,-0.60
2023-03-02T04:45:22.861Z,-0.60
2023-03-02T04:47:49.570Z,-0.60
2023-03-02T04:50:16.296Z,-0.60
2023-03-02T04:52:43.200Z,-0.60
2023-03-02T04:55:12.210Z,-0.70
2023-03-02T04:57:38.929Z,-0.70
2023-03-02T05:00:09.786Z,-0.80
2023-03-02T05:02:36.526Z,-0.80
2023-03-02T05:05:03.427Z,-0.80
2023-03-02T05:07:30.221Z,-0.70
2023-03-02T05:09:57.032Z,-0.80
2023-03-02T05:12:23.790Z,-0.80
2023-03-02T05:19:44.833Z,-1.20
2023-03-02T05:22:11.497Z,-0.90
2023-03-02T05:24:40.717Z,-0.90
2023-03-02T05:27:07.465Z,-0.90
2023-03-02T05:29:36.432Z,-0.80
2023-03-02T05:32:03.237Z,-0.90
2023-03-02T05:34:29.987Z,-1.00
2023-03-02T05:36:58.110Z,-1.10
2023-03-02T05:39:27.460Z,-1.00
2023-03-02T05:41:54.125Z,-1.10
2023-03-02T05:44:22.998Z,-1.10
2023-03-02T08:22:24.456Z,1.40
2023-03-02T08:24:51.108Z,1.50
2023-03-02T09:41:21.704Z,4.20
2023-03-02T09:44:10.815Z,4.50
2023-03-02T09:46:46.823Z,4.40
2023-03-02T09:54:37.928Z,4.60
2023-03-02T09:59:48.508Z,5.10
2023-03-02T10:02:26.877Z,5.30
2023-03-02T10:04:58.462Z,5.30
2023-03-02T10:07:33.657Z,5.40
2023-03-02T10:10:12.229Z,5.50
2023-03-02T10:12:50.716Z,5.40
2023-03-02T11:15:49.192Z,7.20
2023-03-02T11:18:39.897Z,7.40
2023-03-02T11:21:37.956Z,7.40
2023-03-02T12:18:22.707Z,8.40
2023-03-02T12:21:09.402Z,8.50
2023-03-02T12:24:01.046Z,8.60
2023-03-02T12:26:32.246Z,8.50
2023-03-02T12:29:04.753Z,8.60
2023-03-02T12:31:43.545Z,8.70
2023-03-02T13:45:28.176Z,10.80
2023-03-02T13:47:58.540Z,10.90
2023-03-02T13:50:25.324Z,10.80
2023-03-02T13:52:55.290Z,10.80
2023-03-02T13:55:21.969Z,10.80
2023-03-02T13:57:52.804Z,10.70
2023-03-02T14:00:30.103Z,10.70
2023-03-02T14:02:56.838Z,10.70
2023-03-02T14:05:27.010Z,10.70
2023-03-02T14:07:55.976Z,10.70
2023-03-02T14:10:22.672Z,10.80
2023-03-02T14:13:10.551Z,10.90
2023-03-02T14:15:42.560Z,11.10
2023-03-02T14:18:30.008Z,11.30
2023-03-02T14:20:59.322Z,11.40
2023-03-02T14:23:26.968Z,11.70
2023-03-02T14:30:55.281Z,13.60
2023-03-02T14:38:19.320Z,15.30
2023-03-02T14:48:14.846Z,17.90
2023-03-02T14:50:46.243Z,18.90
2023-03-02T14:53:27.863Z,19.40
2023-03-02T17:59:02.228Z,7.70
2023-03-02T18:01:29.814Z,7.70
2023-03-02T20:25:07.485Z,5.80
2023-03-02T20:37:25.999Z,5.10
2023-03-02T20:39:53.176Z,5.00
2023-03-02T20:42:21.140Z,5.00
2023-03-02T20:44:51.902Z,4.90
2023-03-02T20:47:19.146Z,4.80
2023-03-02T20:59:45.772Z,4.80
2023-03-02T21:02:14.904Z,4.80
2023-03-02T21:04:42.500Z,4.50
2023-03-02T21:51:32.723Z,3.80
2023-03-02T22:01:25.580Z,3.60
2023-03-02T22:03:53.080Z,3.80
2023-03-02T22:06:29.643Z,3.80
2023-03-02T22:08:57.323Z,3.90
2023-03-02T22:49:17.113Z,3.10
2023-03-02T22:51:46.839Z,3.10
